createdAt,value
2019-05-11T00:03:48.550Z,9.10
2019-05-11T00:08:52.062Z,9.37
2019-05-11T00:13:54.141Z,9.20
2019-05-11T00:18:56.357Z,9.77
2019-05-11T00:23:58.647Z,10.03
2019-05-11T00:29:00.751Z,11.33
2019-05-11T00:34:03.021Z,10.53
2019-05-11T00:39:06.441Z,11.30
2019-05-11T00:44:08.739Z,11.10
2019-05-11T00:49:10.763Z,10.40
2019-05-11T00:54:14.728Z,9.57
2019-05-11T00:59:21.702Z,9.93
2019-05-11T01:04:20.816Z,10.27
2019-05-11T01:09:23.013Z,11.63
2019-05-11T01:14:25.308Z,10.73
2019-05-11T01:19:27.392Z,12.10
2019-05-11T01:24:29.534Z,11.87
2019-05-11T01:29:31.563Z,9.83
2019-05-11T01:34:33.739Z,11.00
2019-05-11T01:39:36.289Z,10.50
2019-05-11T01:44:38.332Z,10.83
2019-05-11T01:49:40.370Z,11.23
2019-05-11T01:54:42.358Z,11.73
2019-05-11T01:59:44.498Z,11.80
2019-05-11T02:04:50.751Z,11.07
2019-05-11T02:09:52.977Z,10.97
2019-05-11T02:14:55.001Z,11.27
2019-05-11T02:19:57.117Z,12.73
2019-05-11T02:24:59.237Z,12.03
2019-05-11T02:30:01.649Z,12.53
2019-05-11T02:35:04.081Z,11.93
2019-05-11T02:40:08.719Z,13.43
2019-05-11T02:45:11.548Z,13.03
2019-05-11T02:50:13.873Z,11.83
2019-05-11T02:55:16.107Z,13.00
2019-05-11T03:00:23.032Z,12.77
2019-05-11T03:05:25.075Z,13.20
2019-05-11T03:10:27.180Z,12.53
2019-05-11T03:15:29.391Z,12.10
2019-05-11T03:20:31.532Z,11.77
2019-05-11T03:25:33.716Z,11.47
2019-05-11T03:30:35.918Z,11.67
2019-05-11T03:35:37.938Z,11.87
2019-05-11T03:40:40.359Z,12.70
2019-05-11T03:45:42.467Z,12.43
2019-05-11T03:50:44.569Z,13.40
2019-05-11T03:55:46.669Z,13.20
2019-05-11T04:00:48.749Z,12.40
2019-05-11T04:05:50.991Z,13.40
2019-05-11T04:10:53.122Z,12.60
2019-05-11T04:15:55.091Z,13.70
2019-05-11T04:20:58.473Z,12.97
2019-05-11T04:26:00.547Z,13.63
2019-05-11T04:31:02.659Z,13.83
2019-05-11T04:36:04.698Z,13.60
2019-05-11T04:41:06.981Z,13.13
2019-05-11T04:46:10.751Z,14.03
2019-05-11T04:51:14.028Z,12.20
2019-05-11T04:56:16.273Z,12.00
2019-05-11T05:01:18.278Z,12.70
2019-05-11T05:06:23.975Z,11.93
2019-05-11T05:11:24.456Z,11.80
2019-05-11T05:16:26.446Z,11.23
2019-05-11T05:21:28.436Z,10.50
2019-05-11T05:26:30.581Z,10.77
2019-05-11T05:31:32.688Z,10.13
2019-05-11T05:36:34.717Z,11.20
2019-05-11T05:41:36.901Z,9.70
2019-05-11T05:46:39.116Z,10.23
2019-05-11T05:51:41.223Z,10.73
2019-05-11T05:56:43.395Z,10.50
2019-05-11T06:01:45.366Z,11.40
2019-05-11T06:06:47.395Z,11.33
2019-05-11T06:11:49.408Z,12.63
2019-05-11T06:16:51.970Z,11.73
2019-05-11T06:21:54.158Z,10.80
2019-05-11T06:26:56.211Z,11.87
2019-05-11T06:31:58.327Z,10.73
2019-05-11T06:37:00.527Z,10.27
2019-05-11T06:42:04.557Z,10.63
2019-05-11T06:47:06.760Z,9.93
2019-05-11T06:52:08.858Z,9.73
2019-05-11T06:57:10.895Z,10.57
2019-05-11T07:02:12.988Z,10.63
2019-05-11T07:07:15.252Z,11.60
2019-05-11T07:12:17.636Z,10.20
2019-05-11T07:17:19.695Z,12.77
2019-05-11T07:22:21.670Z,11.40
2019-05-11T07:27:23.761Z,12.40
2019-05-11T07:32:26.286Z,16.10
2019-05-11T07:37:29.320Z,11.57
2019-05-11T07:48:27.835Z,8.60
2019-05-11T07:53:30.014Z,10.60
2019-05-11T07:58:31.993Z,9.50
2019-05-11T08:03:34.078Z,9.03
2019-05-11T08:08:38.499Z,9.13
2019-05-11T08:13:40.171Z,9.97
2019-05-11T08:18:42.391Z,10.90
2019-05-11T08:23:44.413Z,10.47
2019-05-11T08:28:48.645Z,11.47
2019-05-11T08:33:50.453Z,12.17
2019-05-11T08:38:52.598Z,8.90
2019-05-11T08:43:58.015Z,10.57
2019-05-11T08:49:00.008Z,9.07
2019-05-11T08:54:02.132Z,8.90
2019-05-11T08:59:08.174Z,9.07
2019-05-11T09:04:10.543Z,8.83
2019-05-11T09:09:25.820Z,9.33
2019-05-11T09:14:28.532Z,8.87
2019-05-11T09:19:30.781Z,10.20
2019-05-11T09:24:32.896Z,9.20
2019-05-11T09:29:35.015Z,9.20
2019-05-11T09:34:37.823Z,10.30
2019-05-11T09:39:40.264Z,9.67
2019-05-11T09:44:44.440Z,10.70
2019-05-11T09:49:50.111Z,10.30
2019-05-11T09:54:50.558Z,9.27
2019-05-11T09:59:53.648Z,9.73
2019-05-11T10:04:57.833Z,9.60
2019-05-11T10:10:00.769Z,8.90
2019-05-11T10:15:03.386Z,9.93
2019-05-11T10:20:09.311Z,9.47
2019-05-11T10:25:11.287Z,9.87
2019-05-11T10:30:15.324Z,9.93
2019-05-11T10:35:18.351Z,10.23
2019-05-11T10:40:20.976Z,8.93
2019-05-11T10:45:23.091Z,10.40
2019-05-11T10:50:25.218Z,10.03
2019-05-11T10:55:28.023Z,10.30
2019-05-11T11:00:30.585Z,10.23
2019-05-11T11:05:32.858Z,9.50
2019-05-11T11:10:35.180Z,10.33
2019-05-11T11:15:38.071Z,9.87
2019-05-11T11:20:40.343Z,10.27
2019-05-11T11:25:42.543Z,10.87
2019-05-11T11:30:44.643Z,11.27
2019-05-11T11:35:47.728Z,15.70
2019-05-11T11:40:50.031Z,19.27
2019-05-11T11:45:52.027Z,9.47
2019-05-11T11:52:33.187Z,8.50
2019-05-11T11:57:37.806Z,5.60
2019-05-11T12:02:39.614Z,11.03
2019-05-11T12:07:41.747Z,9.87
2019-05-11T12:12:43.822Z,9.80
2019-05-11T12:17:48.078Z,8.17
2019-05-11T12:22:50.064Z,8.63
2019-05-11T12:27:53.507Z,11.07
2019-05-11T12:32:57.572Z,5.87
2019-05-11T12:38:08.612Z,9.53
2019-05-11T12:43:11.043Z,9.07
2019-05-11T12:48:14.349Z,9.03
2019-05-11T12:53:18.620Z,8.77
2019-05-11T12:58:20.909Z,13.57
2019-05-11T13:03:23.051Z,9.77
2019-05-11T13:08:25.049Z,12.03
2019-05-11T13:13:28.640Z,9.60
2019-05-11T13:18:35.785Z,10.47
2019-05-11T13:23:38.535Z,11.77
2019-05-11T13:28:40.550Z,5.93
2019-05-11T13:33:42.545Z,6.03
2019-05-11T13:38:44.534Z,7.53
2019-05-11T13:43:48.587Z,7.17
2019-05-11T13:48:50.918Z,7.00
2019-05-11T13:53:54.256Z,5.27
2019-05-11T13:59:06.531Z,10.33
2019-05-11T14:04:28.243Z,9.93
2019-05-11T14:09:30.338Z,4.40
2019-05-11T14:14:33.197Z,9.70
2019-05-11T14:19:38.275Z,11.80
2019-05-11T14:24:39.601Z,5.67
2019-05-11T14:29:41.606Z,5.00
2019-05-11T14:34:43.720Z,8.53
2019-05-11T14:39:48.185Z,5.90
2019-05-11T14:44:50.455Z,4.40
2019-05-11T14:49:52.424Z,6.57
2019-05-11T14:54:55.061Z,3.80
2019-05-11T14:59:58.611Z,8.33
2019-05-11T15:05:01.703Z,4.30
2019-05-11T15:10:11.395Z,6.07
2019-05-11T15:15:18.639Z,7.57
2019-05-11T15:20:20.910Z,6.60
2019-05-11T15:25:22.937Z,8.40
2019-05-11T15:30:25.243Z,3.93
2019-05-11T15:35:28.419Z,5.97
2019-05-11T15:40:30.921Z,6.70
2019-05-11T15:45:33.028Z,8.20
2019-05-11T15:50:35.022Z,9.00
2019-05-11T15:55:40.370Z,9.97
2019-05-11T16:00:41.139Z,7.40
2019-05-11T16:05:43.348Z,9.80
2019-05-11T16:10:48.930Z,6.17
2019-05-11T16:15:51.019Z,8.17
2019-05-11T16:20:53.078Z,6.50
2019-05-11T16:25:55.181Z,8.20
2019-05-11T16:30:58.376Z,9.03
2019-05-11T16:36:00.826Z,6.40
2019-05-11T16:41:03.320Z,6.47
2019-05-11T16:46:08.471Z,5.37
2019-05-11T16:51:10.405Z,6.53
2019-05-11T16:56:12.425Z,6.37
2019-05-11T17:01:14.449Z,8.07
2019-05-11T17:06:16.465Z,9.53
2019-05-11T17:11:19.744Z,6.57
2019-05-11T17:16:21.900Z,7.63
2019-05-11T17:21:23.895Z,6.53
2019-05-11T17:26:27.883Z,9.40
2019-05-11T17:31:30.036Z,8.57
2019-05-11T17:36:32.042Z,9.90
2019-05-11T17:41:34.246Z,4.93
2019-05-11T17:46:38.517Z,3.17
2019-05-11T17:51:40.656Z,6.87
2019-05-11T17:56:42.936Z,5.93
2019-05-11T18:01:46.934Z,5.73
2019-05-11T18:06:49.036Z,4.20
2019-05-11T18:11:51.147Z,4.67
2019-05-11T18:16:53.441Z,3.50
2019-05-11T18:21:57.729Z,3.37
2019-05-11T18:27:00.549Z,3.60
2019-05-11T18:32:02.776Z,3.83
2019-05-11T18:37:08.579Z,5.53
2019-05-11T18:42:10.059Z,3.80
2019-05-11T18:47:12.247Z,3.17
2019-05-11T18:52:14.432Z,3.70
2019-05-11T18:57:18.613Z,5.20
2019-05-11T19:02:20.584Z,4.07
2019-05-11T19:07:23.180Z,4.57
2019-05-11T19:12:27.662Z,4.33
2019-05-11T19:17:29.443Z,5.97
2019-05-11T19:22:31.483Z,4.70
2019-05-11T19:27:33.585Z,6.57
2019-05-11T19:32:38.067Z,6.93
2019-05-11T19:37:39.898Z,6.90
2019-05-11T19:42:54.805Z,4.80
2019-05-11T19:47:57.853Z,5.30
2019-05-11T19:53:00.402Z,7.60
2019-05-11T19:58:02.834Z,7.43
2019-05-11T20:03:04.875Z,7.90
2019-05-11T20:08:07.922Z,7.67
2019-05-11T20:13:10.158Z,7.90
2019-05-11T20:18:12.325Z,6.10
2019-05-11T20:23:14.345Z,6.00
2019-05-11T20:28:18.306Z,4.87
2019-05-11T20:33:20.483Z,5.17
2019-05-11T20:38:22.570Z,5.63
2019-05-11T20:43:24.693Z,5.20
2019-05-11T20:48:27.706Z,5.03
2019-05-11T20:53:29.980Z,5.67
2019-05-11T20:58:51.873Z,5.60
2019-05-11T21:03:54.033Z,5.60
2019-05-11T21:08:56.018Z,5.27
2019-05-11T21:13:58.154Z,4.97
2019-05-11T21:19:00.214Z,4.73
2019-05-11T21:24:02.305Z,4.70
2019-05-11T21:29:04.545Z,5.30
2019-05-11T21:34:08.180Z,5.67
2019-05-11T21:39:10.566Z,5.97
2019-05-11T21:44:12.799Z,6.07
2019-05-11T21:49:14.786Z,5.60
2019-05-11T21:54:16.899Z,5.43
2019-05-11T22:09:12.345Z,4.80
2019-05-11T22:24:49.505Z,3.10
2019-05-11T22:29:51.503Z,3.73
2019-05-11T22:34:53.571Z,3.50
2019-05-11T22:39:59.681Z,3.17
2019-05-11T22:45:01.893Z,2.87
2019-05-11T22:50:05.017Z,2.97
2019-05-11T22:55:08.887Z,3.00
2019-05-11T23:00:12.560Z,2.80
2019-05-11T23:05:16.783Z,2.70
2019-05-11T23:10:19.022Z,2.07
2019-05-11T23:15:21.034Z,2.87
2019-05-11T23:20:23.262Z,2.60
2019-05-11T23:25:25.364Z,2.17
2019-05-11T23:30:29.387Z,2.27
2019-05-11T23:35:31.675Z,2.30
2019-05-11T23:40:33.891Z,2.30
2019-05-11T23:45:38.206Z,1.93
2019-05-11T23:50:40.205Z,1.73
2019-05-11T23:55:42.462Z,2.03
